sensor_id;sensor_type;location;lat;lon;timestamp;pressure;altitude;pressure_sealevel;temperature;humidity
32083;BME280;18597;48.328;7.932;2023-02-15T00:01:56;100989.84;;;0.16;100.00
32083;BME280;18597;48.328;7.932;2023-02-15T00:04:24;100988.94;;;0.17;100.00
32083;BME280;18597;48.328;7.932;2023-02-15T00:07:10;100995.00;;;0.19;100.00
32083;BME280;18597;48.328;7.932;2023-02-15T00:09:36;100998.00;;;0.02;100.00
32083;BME280;18597;48.328;7.932;2023-02-15T00:12:01;100994.78;;;-0.12;100.00
32083;BME280;18597;48.328;7.932;2023-02-15T00:14:27;100989.72;;;-0.23;100.00
32083;BME280;18597;48.328;7.932;2023-02-15T00:16:53;100996.06;;;-0.33;100.00
32083;BME280;18597;48.328;7.932;2023-02-15T00:19:21;100987.53;;;-0.46;100.00
32083;BME280;18597;48.328;7.932;2023-02-15T00:21:48;100979.75;;;-0.50;100.00
32083;BME280;18597;48.328;7.932;2023-02-15T00:24:16;100981.53;;;-0.51;100.00
32083;BME280;18597;48.328;7.932;2023-02-15T00:26:43;100980.66;;;-0.51;100.00
32083;BME280;18597;48.328;7.932;2023-02-15T00:29:11;100982.63;;;-0.64;100.00
32083;BME280;18597;48.328;7.932;2023-02-15T00:31:37;100975.47;;;-0.56;100.00
32083;BME280;18597;48.328;7.932;2023-02-15T00:34:12;100982.38;;;-0.50;100.00
32083;BME280;18597;48.328;7.932;2023-02-15T00:36:38;100981.50;;;-0.49;100.00
32083;BME280;18597;48.328;7.932;2023-02-15T00:39:05;100983.44;;;-0.59;100.00
32083;BME280;18597;48.328;7.932;2023-02-15T00:41:33;100980.13;;;-0.70;100.00
32083;BME280;18597;48.328;7.932;2023-02-15T00:43:59;100980.06;;;-0.67;100.00
32083;BME280;18597;48.328;7.932;2023-02-15T00:46:26;100977.41;;;-0.66;100.00
32083;BME280;18597;48.328;7.932;2023-02-15T00:48:51;100979.94;;;-0.61;100.00
32083;BME280;18597;48.328;7.932;2023-02-15T00:51:17;100984.25;;;-0.57;100.00
32083;BME280;18597;48.328;7.932;2023-02-15T00:53:44;100974.56;;;-0.53;100.00
32083;BME280;18597;48.328;7.932;2023-02-15T00:56:10;100973.63;;;-0.49;100.00
32083;BME280;18597;48.328;7.932;2023-02-15T00:58:36;100976.88;;;-0.37;100.00
32083;BME280;18597;48.328;7.932;2023-02-15T01:01:09;100979.59;;;-0.41;100.00
32083;BME280;18597;48.328;7.932;2023-02-15T01:03:36;100977.78;;;-0.38;100.00
32083;BME280;18597;48.328;7.932;2023-02-15T01:06:03;100971.00;;;-0.49;100.00
32083;BME280;18597;48.328;7.932;2023-02-15T01:08:30;100969.50;;;-0.64;100.00
32083;BME280;18597;48.328;7.932;2023-02-15T01:10:56;100968.47;;;-0.56;100.00
32083;BME280;18597;48.328;7.932;2023-02-15T01:13:23;100974.56;;;-0.53;100.00
32083;BME280;18597;48.328;7.932;2023-02-15T01:15:56;100961.56;;;-0.61;100.00
32083;BME280;18597;48.328;7.932;2023-02-15T01:18:22;100965.81;;;-0.54;100.00
32083;BME280;18597;48.328;7.932;2023-02-15T01:20:48;100963.19;;;-0.54;100.00
32083;BME280;18597;48.328;7.932;2023-02-15T01:23:15;100966.69;;;-0.52;100.00
32083;BME280;18597;48.328;7.932;2023-02-15T01:25:41;100960.34;;;-0.42;100.00
32083;BME280;18597;48.328;7.932;2023-02-15T01:28:07;100957.72;;;-0.42;100.00
32083;BME280;18597;48.328;7.932;2023-02-15T01:30:33;100959.44;;;-0.41;100.00
32083;BME280;18597;48.328;7.932;2023-02-15T01:32:59;100962.00;;;-0.36;100.00
32083;BME280;18597;48.328;7.932;2023-02-15T01:35:27;100958.50;;;-0.37;100.00
32083;BME280;18597;48.328;7.932;2023-02-15T01:37:55;100954.16;;;-0.38;100.00
32083;BME280;18597;48.328;7.932;2023-02-15T01:40:23;100962.78;;;-0.33;100.00
32083;BME280;18597;48.328;7.932;2023-02-15T01:42:52;100965.41;;;-0.33;100.00
32083;BME280;18597;48.328;7.932;2023-02-15T01:45:26;100969.97;;;-0.42;100.00
32083;BME280;18597;48.328;7.932;2023-02-15T01:50:44;100959.66;;;-0.53;100.00
32083;BME280;18597;48.328;7.932;2023-02-15T01:53:22;100962.41;;;-0.58;100.00
32083;BME280;18597;48.328;7.932;2023-02-15T01:55:55;100961.47;;;-0.55;100.00
32083;BME280;18597;48.328;7.932;2023-02-15T01:58:26;100950.13;;;-0.57;100.00
32083;BME280;18597;48.328;7.932;2023-02-15T02:00:54;100961.50;;;-0.57;100.00
32083;BME280;18597;48.328;7.932;2023-02-15T02:03:43;100958.22;;;-0.68;100.00
32083;BME280;18597;48.328;7.932;2023-02-15T02:06:13;100959.19;;;-0.73;100.00
32083;BME280;18597;48.328;7.932;2023-02-15T02:08:41;100953.75;;;-0.64;100.00
32083;BME280;18597;48.328;7.932;2023-02-15T02:11:15;100954.63;;;-0.64;100.00
32083;BME280;18597;48.328;7.932;2023-02-15T02:13:43;100947.63;;;-0.63;100.00
32083;BME280;18597;48.328;7.932;2023-02-15T02:16:25;100950.19;;;-0.60;100.00
32083;BME280;18597;48.328;7.932;2023-02-15T02:25:50;100936.91;;;-0.51;100.00
32083;BME280;18597;48.328;7.932;2023-02-15T02:35:08;100937.03;;;-0.59;100.00
32083;BME280;18597;48.328;7.932;2023-02-15T02:41:08;100935.47;;;-0.69;100.00
32083;BME280;18597;48.328;7.932;2023-02-15T02:43:54;100941.84;;;-0.84;100.00
32083;BME280;18597;48.328;7.932;2023-02-15T02:46:55;100935.75;;;-0.84;100.00
32083;BME280;18597;48.328;7.932;2023-02-15T02:49:42;100933.25;;;-0.92;100.00
32083;BME280;18597;48.328;7.932;2023-02-15T02:55:18;100930.34;;;-1.24;100.00
32083;BME280;18597;48.328;7.932;2023-02-15T02:58:05;100927.75;;;-1.26;100.00
32083;BME280;18597;48.328;7.932;2023-02-15T03:00:40;100920.66;;;-1.22;100.00
32083;BME280;18597;48.328;7.932;2023-02-15T03:03:14;100921.50;;;-1.19;100.00
32083;BME280;18597;48.328;7.932;2023-02-15T03:05:45;100920.63;;;-1.19;100.00
32083;BME280;18597;48.328;7.932;2023-02-15T03:08:19;100927.50;;;-1.12;100.00
32083;BME280;18597;48.328;7.932;2023-02-15T03:10:51;100924.94;;;-1.15;100.00
32083;BME280;18597;48.328;7.932;2023-02-15T03:13:18;100919.69;;;-1.15;100.00
32083;BME280;18597;48.328;7.932;2023-02-15T03:15:45;100927.38;;;-1.06;100.00
32083;BME280;18597;48.328;7.932;2023-02-15T03:18:37;100923.03;;;-1.07;100.00
32083;BME280;18597;48.328;7.932;2023-02-15T03:21:04;100922.97;;;-1.02;100.00
32083;BME280;18597;48.328;7.932;2023-02-15T03:23:33;100923.88;;;-1.03;100.00
32083;BME280;18597;48.328;7.932;2023-02-15T03:26:03;100922.03;;;-1.00;100.00
32083;BME280;18597;48.328;7.932;2023-02-15T03:28:42;100933.50;;;-1.04;100.00
32083;BME280;18597;48.328;7.932;2023-02-15T03:31:11;100925.00;;;-1.18;100.00
32083;BME280;18597;48.328;7.932;2023-02-15T03:33:45;100931.28;;;-1.28;100.00
32083;BME280;18597;48.328;7.932;2023-02-15T03:36:28;100925.19;;;-1.30;100.00
32083;BME280;18597;48.328;7.932;2023-02-15T03:39:31;100929.66;;;-1.37;100.00
32083;BME280;18597;48.328;7.932;2023-02-15T03:42:13;100934.91;;;-1.37;100.00
32083;BME280;18597;48.328;7.932;2023-02-15T03:44:53;100932.41;;;-1.45;100.00
32083;BME280;18597;48.328;7.932;2023-02-15T03:47:28;100923.63;;;-1.44;100.00
32083;BME280;18597;48.328;7.932;2023-02-15T03:50:20;100924.38;;;-1.34;100.00
32083;BME280;18597;48.328;7.932;2023-02-15T03:53:11;100936.53;;;-1.30;100.00
32083;BME280;18597;48.328;7.932;2023-02-15T03:55:39;100927.66;;;-1.21;100.00
32083;BME280;18597;48.328;7.932;2023-02-15T03:58:05;100934.69;;;-1.23;100.00
32083;BME280;18597;48.328;7.932;2023-02-15T04:01:00;100936.31;;;-1.16;100.00
32083;BME280;18597;48.328;7.932;2023-02-15T04:03:59;100932.59;;;-1.03;100.00
32083;BME280;18597;48.328;7.932;2023-02-15T04:06:26;100934.25;;;-0.99;100.00
32083;BME280;18597;48.328;7.932;2023-02-15T04:08:52;100936.75;;;-0.90;100.00
32083;BME280;18597;48.328;7.932;2023-02-15T04:11:38;100924.16;;;-1.20;100.00
32083;BME280;18597;48.328;7.932;2023-02-15T04:14:04;100931.22;;;-1.25;100.00
32083;BME280;18597;48.328;7.932;2023-02-15T04:16:49;100929.59;;;-1.32;100.00
32083;BME280;18597;48.328;7.932;2023-02-15T04:19:15;100930.88;;;-1.58;100.00
32083;BME280;18597;48.328;7.932;2023-02-15T04:22:01;100921.38;;;-1.67;100.00
32083;BME280;18597;48.328;7.932;2023-02-15T04:24:47;100930.22;;;-1.72;100.00
32083;BME280;18597;48.328;7.932;2023-02-15T04:27:33;100926.81;;;-1.79;100.00
32083;BME280;18597;48.328;7.932;2023-02-15T04:29:58;100931.97;;;-1.73;100.00
32083;BME280;18597;48.328;7.932;2023-02-15T04:32:24;100918.78;;;-1.68;100.00
32083;BME280;18597;48.328;7.932;2023-02-15T04:34:50;100915.16;;;-1.58;100.00
32083;BME280;18597;48.328;7.932;2023-02-15T04:37:16;100914.28;;;-1.58;100.00
32083;BME280;18597;48.328;7.932;2023-02-15T04:39:41;100923.00;;;-1.58;100.00
32083;BME280;18597;48.328;7.932;2023-02-15T04:42:07;100922.16;;;-1.60;100.00
32083;BME280;18597;48.328;7.932;2023-02-15T04:44:33;100919.44;;;-1.54;100.00
32083;BME280;18597;48.328;7.932;2023-02-15T04:46:59;100917.53;;;-1.43;100.00
32083;BME280;18597;48.328;7.932;2023-02-15T04:49:24;100924.53;;;-1.45;100.00
32083;BME280;18597;48.328;7.932;2023-02-15T04:51:50;100916.88;;;-1.57;100.00
32083;BME280;18597;48.328;7.932;2023-02-15T04:54:16;100914.16;;;-1.51;100.00
32083;BME280;18597;48.328;7.932;2023-02-15T04:56:42;100911.16;;;-1.83;100.00
32083;BME280;18597;48.328;7.932;2023-02-15T04:59:10;100920.06;;;-1.95;100.00
32083;BME280;18597;48.328;7.932;2023-02-15T05:01:36;100923.50;;;-1.93;100.00
32083;BME280;18597;48.328;7.932;2023-02-15T05:04:02;100922.66;;;-1.97;100.00
32083;BME280;18597;48.328;7.932;2023-02-15T05:06:28;100926.09;;;-1.91;100.00
32083;BME280;18597;48.328;7.932;2023-02-15T05:08:54;100923.44;;;-1.87;100.00
32083;BME280;18597;48.328;7.932;2023-02-15T05:11:20;100925.81;;;-1.70;100.00
32083;BME280;18597;48.328;7.932;2023-02-15T05:13:46;100923.38;;;-1.84;100.00
32083;BME280;18597;48.328;7.932;2023-02-15T05:16:12;100924.41;;;-1.94;100.00
32083;BME280;18597;48.328;7.932;2023-02-15T05:18:38;100923.38;;;-1.84;100.00
32083;BME280;18597;48.328;7.932;2023-02-15T05:21:04;100922.38;;;-1.75;100.00
32083;BME280;18597;48.328;7.932;2023-02-15T05:23:30;100918.94;;;-1.79;100.00
32083;BME280;18597;48.328;7.932;2023-02-15T05:25:55;100924.00;;;-1.65;100.00
32083;BME280;18597;48.328;7.932;2023-02-15T05:28:41;100922.16;;;-1.60;100.00
32083;BME280;18597;48.328;7.932;2023-02-15T05:31:12;100928.31;;;-1.62;100.00
32083;BME280;18597;48.328;7.932;2023-02-15T05:33:38;100916.00;;;-1.59;100.00
32083;BME280;18597;48.328;7.932;2023-02-15T05:36:05;100933.50;;;-1.59;100.00
32083;BME280;18597;48.328;7.932;2023-02-15T05:38:31;100920.28;;;-1.50;100.00
32083;BME280;18597;48.328;7.932;2023-02-15T05:40:57;100925.81;;;-1.70;100.00
32083;BME280;18597;48.328;7.932;2023-02-15T05:43:23;100921.56;;;-1.79;100.00
32083;BME280;18597;48.328;7.932;2023-02-15T05:45:52;100928.63;;;-1.84;100.00
32083;BME280;18597;48.328;7.932;2023-02-15T05:48:20;100933.19;;;-1.98;100.00
32083;BME280;18597;48.328;7.932;2023-02-15T05:50:46;100925.09;;;-1.81;100.00
32083;BME280;18597;48.328;7.932;2023-02-15T05:53:12;100921.72;;;-1.88;100.00
32083;BME280;18597;48.328;7.932;2023-02-15T05:55:39;100924.41;;;-1.94;100.00
32083;BME280;18597;48.328;7.932;2023-02-15T05:58:06;100919.94;;;-1.86;100.00
32083;BME280;18597;48.328;7.932;2023-02-15T06:00:33;100928.50;;;-1.76;100.00
32083;BME280;18597;48.328;7.932;2023-02-15T06:02:59;100929.34;;;-1.74;100.00
32083;BME280;18597;48.328;7.932;2023-02-15T06:05:25;100938.97;;;-1.75;100.00
32083;BME280;18597;48.328;7.932;2023-02-15T06:07:51;100936.28;;;-1.70;100.00
32083;BME280;18597;48.328;7.932;2023-02-15T06:10:17;100940.81;;;-1.80;100.00
32083;BME280;18597;48.328;7.932;2023-02-15T06:12:44;100931.19;;;-1.79;100.00
32083;BME280;18597;48.328;7.932;2023-02-15T06:15:10;100946.94;;;-1.82;100.00
32083;BME280;18597;48.328;7.932;2023-02-15T06:17:36;100941.59;;;-1.73;100.00
32083;BME280;18597;48.328;7.932;2023-02-15T06:20:03;100940.78;;;-1.78;100.00
32083;BME280;18597;48.328;7.932;2023-02-15T06:22:29;100950.66;;;-1.99;100.00
32083;BME280;18597;48.328;7.932;2023-02-15T06:24:54;100954.13;;;-1.98;100.00
32083;BME280;18597;48.328;7.932;2023-02-15T06:27:20;100958.63;;;-2.08;100.00
32083;BME280;18597;48.328;7.932;2023-02-15T06:29:46;100947.47;;;-2.22;100.00
32083;BME280;18597;48.328;7.932;2023-02-15T06:32:12;100963.16;;;-2.22;100.00
32083;BME280;18597;48.328;7.932;2023-02-15T06:34:37;100964.81;;;-2.15;100.00
32083;BME280;18597;48.328;7.932;2023-02-15T06:37:03;100952.56;;;-2.10;100.00
32083;BME280;18597;48.328;7.932;2023-02-15T06:39:29;100963.91;;;-2.09;100.00
32083;BME280;18597;48.328;7.932;2023-02-15T06:41:55;100959.63;;;-2.16;100.00
32083;BME280;18597;48.328;7.932;2023-02-15T06:44:20;100963.59;;;-1.86;100.00
32083;BME280;18597;48.328;7.932;2023-02-15T06:46:46;100962.69;;;-1.85;100.00
32083;BME280;18597;48.328;7.932;2023-02-15T06:49:12;100955.81;;;-1.92;100.00
32083;BME280;18597;48.328;7.932;2023-02-15T06:51:38;100965.34;;;-1.87;100.00
32083;BME280;18597;48.328;7.932;2023-02-15T06:54:04;100962.84;;;-1.98;100.00
32083;BME280;18597;48.328;7.932;2023-02-15T06:56:30;100964.56;;;-1.93;100.00
32083;BME280;18597;48.328;7.932;2023-02-15T06:58:55;100962.06;;;-2.04;100.00
32083;BME280;18597;48.328;7.932;2023-02-15T07:01:21;100971.47;;;-1.89;100.00
32083;BME280;18597;48.328;7.932;2023-02-15T07:03:47;100969.81;;;-1.93;100.00
32083;BME280;18597;48.328;7.932;2023-02-15T07:06:13;100972.38;;;-1.90;100.00
32083;BME280;18597;48.328;7.932;2023-02-15T07:08:39;100977.44;;;-1.78;100.00
32083;BME280;18597;48.328;7.932;2023-02-15T07:11:06;100971.25;;;-1.74;100.00
32083;BME280;18597;48.328;7.932;2023-02-15T07:13:52;100969.31;;;-1.60;100.00
32083;BME280;18597;48.328;7.932;2023-02-15T07:16:19;100977.56;;;-1.86;100.00
32083;BME280;18597;48.328;7.932;2023-02-15T07:18:45;100975.63;;;-1.72;100.00
32083;BME280;18597;48.328;7.932;2023-02-15T07:21:11;100970.28;;;-1.64;100.00
32083;BME280;18597;48.328;7.932;2023-02-15T07:23:38;100965.69;;;-1.51;100.00
32083;BME280;18597;48.328;7.932;2023-02-15T07:26:05;100967.53;;;-1.56;100.00
32083;BME280;18597;48.328;7.932;2023-02-15T07:28:34;100964.00;;;-1.54;100.00
32083;BME280;18597;48.328;7.932;2023-02-15T07:31:02;100959.34;;;-1.35;100.00
32083;BME280;18597;48.328;7.932;2023-02-15T07:33:31;100952.94;;;-1.17;100.00
32083;BME280;18597;48.328;7.932;2023-02-15T07:36:00;100955.47;;;-1.11;100.00
32083;BME280;18597;48.328;7.932;2023-02-15T07:38:32;100958.63;;;-0.92;100.00
32083;BME280;18597;48.328;7.932;2023-02-15T07:41:00;100962.72;;;-0.74;100.00
32083;BME280;18597;48.328;7.932;2023-02-15T07:43:28;100958.16;;;-0.65;100.00
32083;BME280;18597;48.328;7.932;2023-02-15T07:45:58;100957.72;;;-0.42;100.00
32083;BME280;18597;48.328;7.932;2023-02-15T07:48:24;100957.41;;;-0.26;100.00
32083;BME280;18597;48.328;7.932;2023-02-15T07:50:50;100953.44;;;-0.04;100.00
32083;BME280;18597;48.328;7.932;2023-02-15T07:53:16;100952.22;;;0.12;100.00
32083;BME280;18597;48.328;7.932;2023-02-15T07:55:42;100939.94;;;0.51;100.00
32083;BME280;18597;48.328;7.932;2023-02-15T07:58:07;100948.91;;;1.79;100.00
32083;BME280;18597;48.328;7.932;2023-02-15T08:00:33;100947.03;;;3.23;100.00
32083;BME280;18597;48.328;7.932;2023-02-15T08:03:19;100930.69;;;4.76;75.81
32083;BME280;18597;48.328;7.932;2023-02-15T08:05:49;100926.00;;;6.78;66.33
32083;BME280;18597;48.328;7.932;2023-02-15T08:08:15;100924.31;;;9.22;52.53
32083;BME280;18597;48.328;7.932;2023-02-15T08:11:06;100922.22;;;11.36;44.19
32083;BME280;18597;48.328;7.932;2023-02-15T08:14:29;100917.75;;;12.97;41.65
32083;BME280;18597;48.328;7.932;2023-02-15T08:16:54;100907.16;;;14.00;37.59
32083;BME280;18597;48.328;7.932;2023-02-15T08:44:02;100917.38;;;4.11;65.18
32083;BME280;18597;48.328;7.932;2023-02-15T08:46:31;100912.44;;;3.30;72.67
32083;BME280;18597;48.328;7.932;2023-02-15T08:48:58;100903.91;;;2.71;78.99
32083;BME280;18597;48.328;7.932;2023-02-15T08:51:27;100912.28;;;2.29;84.61
32083;BME280;18597;48.328;7.932;2023-02-15T08:53:57;100905.38;;;1.95;90.47
32083;BME280;18597;48.328;7.932;2023-02-15T08:56:29;100905.47;;;1.63;93.94
32083;BME280;18597;48.328;7.932;2023-02-15T08:58:57;100896.44;;;1.41;98.39
32083;BME280;18597;48.328;7.932;2023-02-15T09:01:29;100896.59;;;1.34;100.00
32083;BME280;18597;48.328;7.932;2023-02-15T09:04:00;100894.88;;;1.33;100.00
32083;BME280;18597;48.328;7.932;2023-02-15T09:06:28;100896.66;;;1.33;100.00
32083;BME280;18597;48.328;7.932;2023-02-15T09:08:54;100890.84;;;1.20;100.00
32083;BME280;18597;48.328;7.932;2023-02-15T09:11:25;100885.78;;;1.14;100.00
32083;BME280;18597;48.328;7.932;2023-02-15T09:13:56;100884.09;;;1.10;100.00
32083;BME280;18597;48.328;7.932;2023-02-15T09:16:25;100883.19;;;1.11;100.00
32083;BME280;18597;48.328;7.932;2023-02-15T09:18:51;100883.03;;;1.17;100.00
32083;BME280;18597;48.328;7.932;2023-02-15T09:21:21;100880.97;;;1.28;100.00
32083;BME280;18597;48.328;7.932;2023-02-15T09:23:49;100884.34;;;1.33;100.00
32083;BME280;18597;48.328;7.932;2023-02-15T09:26:20;100876.97;;;1.46;100.00
32083;BME280;18597;48.328;7.932;2023-02-15T09:28:47;100870.03;;;1.44;100.00
32083;BME280;18597;48.328;7.932;2023-02-15T09:31:18;100874.47;;;1.42;100.00
32083;BME280;18597;48.328;7.932;2023-02-15T09:33:46;100867.41;;;1.42;100.00
32083;BME280;18597;48.328;7.932;2023-02-15T09:36:21;100872.09;;;1.32;100.00
32083;BME280;18597;48.328;7.932;2023-02-15T09:38:58;100879.00;;;1.36;100.00
32083;BME280;18597;48.328;7.932;2023-02-15T09:45:55;100868.78;;;1.86;100.00
32083;BME280;18597;48.328;7.932;2023-02-15T09:48:41;100871.84;;;2.01;100.00
32083;BME280;18597;48.328;7.932;2023-02-15T09:54:57;100865.94;;;1.92;100.00
32083;BME280;18597;48.328;7.932;2023-02-15T09:58:19;100865.00;;;1.95;100.00
32083;BME280;18597;48.328;7.932;2023-02-15T10:01:30;100861.41;;;1.98;100.00
32083;BME280;18597;48.328;7.932;2023-02-15T10:13:45;100864.00;;;1.99;100.00
32083;BME280;18597;48.328;7.932;2023-02-15T10:16:29;100858.41;;;1.80;100.00
32083;BME280;18597;48.328;7.932;2023-02-15T10:22:21;100852.44;;;1.74;100.00
32083;BME280;18597;48.328;7.932;2023-02-15T10:25:07;100860.97;;;1.54;100.00
32083;BME280;18597;48.328;7.932;2023-02-15T10:27:47;100848.44;;;1.62;100.00
32083;BME280;18597;48.328;7.932;2023-02-15T10:30:17;100858.03;;;1.63;100.00
32083;BME280;18597;48.328;7.932;2023-02-15T10:33:07;100851.00;;;1.63;100.00
32083;BME280;18597;48.328;7.932;2023-02-15T10:36:07;100851.13;;;1.88;100.00
32083;BME280;18597;48.328;7.932;2023-02-15T10:39:14;100843.47;;;2.09;100.00
32083;BME280;18597;48.328;7.932;2023-02-15T10:41:55;100834.34;;;2.19;100.00
32083;BME280;18597;48.328;7.932;2023-02-15T10:48:27;100836.47;;;2.36;100.00
32083;BME280;18597;48.328;7.932;2023-02-15T10:51:00;100838.56;;;2.53;100.00
32083;BME280;18597;48.328;7.932;2023-02-15T10:54:04;100830.94;;;2.70;100.00
32083;BME280;18597;48.328;7.932;2023-02-15T11:00:05;100823.72;;;2.75;100.00
32083;BME280;18597;48.328;7.932;2023-02-15T11:03:19;100822.34;;;2.90;100.00
32083;BME280;18597;48.328;7.932;2023-02-15T11:06:15;100814.13;;;2.97;100.00
32083;BME280;18597;48.328;7.932;2023-02-15T11:08:48;100809.13;;;2.90;100.00
32083;BME280;18597;48.328;7.932;2023-02-15T11:11:24;100808.69;;;3.02;100.00
32083;BME280;18597;48.328;7.932;2023-02-15T11:13:59;100812.09;;;3.05;100.00
32083;BME280;18597;48.328;7.932;2023-02-15T11:16:34;100803.94;;;3.12;100.00
32083;BME280;18597;48.328;7.932;2023-02-15T11:19:13;100798.34;;;3.21;100.00
32083;BME280;18597;48.328;7.932;2023-02-15T11:21:46;100786.69;;;3.26;100.00
32083;BME280;18597;48.328;7.932;2023-02-15T11:24:19;100781.56;;;3.22;100.00
32083;BME280;18597;48.328;7.932;2023-02-15T11:26:54;100782.31;;;3.25;100.00
32083;BME280;18597;48.328;7.932;2023-02-15T11:29:39;100770.06;;;3.23;100.00
32083;BME280;18597;48.328;7.932;2023-02-15T11:32:30;100764.44;;;3.32;100.00
32083;BME280;18597;48.328;7.932;2023-02-15T11:35:26;100756.06;;;3.44;100.00
32083;BME280;18597;48.328;7.932;2023-02-15T11:40:40;100747.72;;;3.55;100.00
32083;BME280;18597;48.328;7.932;2023-02-15T11:46:19;100742.19;;;3.61;100.00
32083;BME280;18597;48.328;7.932;2023-02-15T11:48:47;100743.56;;;3.49;100.00
32083;BME280;18597;48.328;7.932;2023-02-15T11:51:17;100730.63;;;3.42;100.00
32083;BME280;18597;48.328;7.932;2023-02-15T11:53:45;100728.72;;;3.45;100.00
32083;BME280;18597;48.328;7.932;2023-02-15T11:56:18;100727.16;;;3.40;100.00
32083;BME280;18597;48.328;7.932;2023-02-15T11:59:08;100720.94;;;3.42;100.00
32083;BME280;18597;48.328;7.932;2023-02-15T12:01:43;100713.78;;;3.44;100.00
32083;BME280;18597;48.328;7.932;2023-02-15T12:04:36;100722.28;;;3.52;100.00
32083;BME280;18597;48.328;7.932;2023-02-15T12:07:34;100713.31;;;3.56;100.00
32083;BME280;18597;48.328;7.932;2023-02-15T12:10:26;100710.44;;;3.41;100.00
32083;BME280;18597;48.328;7.932;2023-02-15T12:13:14;100710.91;;;3.50;100.00
32083;BME280;18597;48.328;7.932;2023-02-15T12:15:44;100705.56;;;3.52;100.00
32083;BME280;18597;48.328;7.932;2023-02-15T12:18:43;100701.75;;;3.59;100.00
32083;BME280;18597;48.328;7.932;2023-02-15T12:21:43;100700.91;;;3.58;100.00
32083;BME280;18597;48.328;7.932;2023-02-15T12:24:20;100698.25;;;3.58;100.00
32083;BME280;18597;48.328;7.932;2023-02-15T12:27:15;100690.41;;;3.79;100.00
32083;BME280;18597;48.328;7.932;2023-02-15T12:29:46;100692.28;;;3.75;100.00
32083;BME280;18597;48.328;7.932;2023-02-15T12:32:22;100692.28;;;3.75;100.00
32083;BME280;18597;48.328;7.932;2023-02-15T12:34:51;100689.34;;;3.83;100.00
32083;BME280;18597;48.328;7.932;2023-02-15T12:37:25;100688.94;;;3.92;100.00
32083;BME280;18597;48.328;7.932;2023-02-15T12:39:57;100690.94;;;3.87;100.00
32083;BME280;18597;48.328;7.932;2023-02-15T12:42:25;100683.03;;;3.87;100.00
32083;BME280;18597;48.328;7.932;2023-02-15T12:45:03;100678.28;;;3.73;100.00
32083;BME280;18597;48.328;7.932;2023-02-15T12:47:31;100669.97;;;3.82;100.00
32083;BME280;18597;48.328;7.932;2023-02-15T12:50:22;100669.97;;;3.82;100.00
32083;BME280;18597;48.328;7.932;2023-02-15T12:52:50;100668.72;;;3.91;100.00
32083;BME280;18597;48.328;7.932;2023-02-15T12:55:23;100669.81;;;3.87;100.00
32083;BME280;18597;48.328;7.932;2023-02-15T12:58:04;100661.81;;;3.88;100.00
32083;BME280;18597;48.328;7.932;2023-02-15T13:00:30;100667.88;;;3.90;100.00
32083;BME280;18597;48.328;7.932;2023-02-15T13:02:58;100663.97;;;3.99;100.00
32083;BME280;18597;48.328;7.932;2023-02-15T13:05:39;100654.94;;;4.05;100.00
32083;BME280;18597;48.328;7.932;2023-02-15T13:08:27;100655.53;;;4.11;100.00
32083;BME280;18597;48.328;7.932;2023-02-15T13:13:31;100655.56;;;4.32;100.00
32083;BME280;18597;48.328;7.932;2023-02-15T13:16:11;100640.97;;;4.42;100.00
32083;BME280;18597;48.328;7.932;2023-02-15T13:18:44;100643.56;;;4.43;100.00
32083;BME280;18597;48.328;7.932;2023-02-15T13:21:24;100637.56;;;4.40;100.00
32083;BME280;18597;48.328;7.932;2023-02-15T13:23:57;100638.41;;;4.20;100.00
32083;BME280;18597;48.328;7.932;2023-02-15T13:26:29;100639.41;;;4.17;100.00
32083;BME280;18597;48.328;7.932;2023-02-15T13:29:03;100632.66;;;4.10;100.00
32083;BME280;18597;48.328;7.932;2023-02-15T13:31:31;100637.44;;;4.02;100.00
32083;BME280;18597;48.328;7.932;2023-02-15T13:34:21;100630.13;;;4.07;100.00
32083;BME280;18597;48.328;7.932;2023-02-15T13:39:51;100630.44;;;4.01;100.00
32083;BME280;18597;48.328;7.932;2023-02-15T13:42:47;100627.03;;;3.98;100.00
32083;BME280;18597;48.328;7.932;2023-02-15T13:48:16;100623.84;;;3.89;100.00
32083;BME280;18597;48.328;7.932;2023-02-15T13:51:26;100625.22;;;3.78;100.00
32083;BME280;18597;48.328;7.932;2023-02-15T13:57:46;100619.38;;;3.70;100.00
32083;BME280;18597;48.328;7.932;2023-02-15T14:07:33;100627.22;;;3.73;100.00
32083;BME280;18597;48.328;7.932;2023-02-15T14:16:27;100627.50;;;3.87;100.00
32083;BME280;18597;48.328;7.932;2023-02-15T14:19:27;100621.59;;;3.80;100.00
32083;BME280;18597;48.328;7.932;2023-02-15T14:22:26;100627.09;;;3.96;100.00
32083;BME280;18597;48.328;7.932;2023-02-15T14:30:43;100616.94;;;3.87;100.00
32083;BME280;18597;48.328;7.932;2023-02-15T14:35:56;100626.75;;;3.83;100.00
32083;BME280;18597;48.328;7.932;2023-02-15T14:41:31;100634.16;;;3.53;100.00
32083;BME280;18597;48.328;7.932;2023-02-15T14:47:16;100635.47;;;3.43;100.00
32083;BME280;18597;48.328;7.932;2023-02-15T14:49:44;100629.41;;;3.41;100.00
32083;BME280;18597;48.328;7.932;2023-02-15T14:52:11;100636.06;;;3.28;100.00
32083;BME280;18597;48.328;7.932;2023-02-15T14:59:56;100631.25;;;3.16;100.00
32083;BME280;18597;48.328;7.932;2023-02-15T15:02:54;100633.19;;;3.12;100.00
32083;BME280;18597;48.328;7.932;2023-02-15T15:08:32;100634.19;;;3.08;100.00
32083;BME280;18597;48.328;7.932;2023-02-15T15:11:40;100637.22;;;3.21;100.00
32083;BME280;18597;48.328;7.932;2023-02-15T15:14:07;100642.50;;;3.21;100.00
32083;BME280;18597;48.328;7.932;2023-02-15T15:19:12;100629.44;;;3.18;100.00
32083;BME280;18597;48.328;7.932;2023-02-15T15:22:03;100648.03;;;3.15;100.00
32083;BME280;18597;48.328;7.932;2023-02-15T15:27:49;100643.19;;;3.04;100.00
32083;BME280;18597;48.328;7.932;2023-02-15T15:36:39;100645.25;;;2.72;100.00
32083;BME280;18597;48.328;7.932;2023-02-15T15:39:22;100648.75;;;2.73;100.00
32083;BME280;18597;48.328;7.932;2023-02-15T15:42:23;100642.91;;;2.65;100.00